Vernon, Colorado
Current Conditions -  °F | °C
As of 11:35 AM on Thursday 30 Oct 2014 (Local Time) from K2V5 Reporting Station
Clear Clear  
Wind Chill: 64°   Ceiling: Unl
Heat Index: 64°   Visibility: 10mi
Dew Point: 28°   Wind: 17mph
Humidity: 26%   Direction: 340°NNW
Pressure: 30.33"   Gusts: 21mph
Location:  39.95°N, 102.32°W
Report Text: K2V5 301735Z AUTO 34015G18KT 10SM CLR 18/M02 A3033 RMK AO2 T01801021
Loading
Personal Weather Stations






























Interactive Weather Map
Tropical Storm Tracking
New forecast layout! Learn more

10-Day Weather Forecast

Advertisements
Track Severe Weather on mobile